Agana, Guam
Current Conditions -  °F | °C
As of 3:54 PM on Saturday 25 Oct 2014 (Local Time) from PGUM Reporting Station
Clear Clear  
Wind Chill: 85°   Ceiling: Unl
Heat Index: 98°   Visibility: 10mi
Dew Point: 79°   Wind: 10mph
Humidity: 82%   Direction: 70°ENE
Pressure: 29.88"   Gusts: NA
Location:  13.4751°N, 144.7484°E
Report Text: PGUM 250554Z 07009KT 10SM CLR 29/26 A2988 RMK AO2 RAE11 SLP110 P0002 60004 T02940261 10322 20278 55001 $
Loading
Personal Weather Stations






























Interactive Weather Map New forecast layout! Learn more

10-Day Weather Forecast

Advertisements
Track Severe Weather on mobile